Time;durP1;ratioP1;P1;durP2;ratioP2;P2;SDS_P1;SDS_P2;PMS_P1;PMS_P2;Temp;Humidity;BMP_temperature;BMP_pressure;BME280_temperature;BME280_humidity;BME280_pressure;Samples;Min_cycle;Max_cycle;Signal;HPM_P1;HPM_P2
2022/05/18 00:00:45;;;;;;;5.75;2.35;;;;;;;9.02;63.40;100284.07;1692638;84;20947;-41
2022/05/18 00:03:12;;;;;;;9.45;3.12;;;;;;;9.01;63.34;100286.23;1690333;84;20994;-41
2022/05/18 00:05:40;;;;;;;4.50;2.60;;;;;;;8.99;63.12;100282.38;1721763;83;21133;-41
2022/05/18 00:08:08;;;;;;;13.03;2.70;;;;;;;8.97;63.12;100291.00;1666877;84;20888;-42
2022/05/18 00:10:36;;;;;;;4.75;2.30;;;;;;;8.94;63.28;100293.63;1692712;84;21002;-41
2022/05/18 00:13:03;;;;;;;2.52;2.33;;;;;;;8.91;63.28;100290.68;1721563;83;20959;-41
2022/05/18 00:15:30;;;;;;;6.50;2.42;;;;;;;8.89;63.42;100304.05;1721716;83;20895;-42
2022/05/18 00:17:56;;;;;;;4.75;2.85;;;;;;;8.86;63.49;100293.77;1677919;84;21160;-41
2022/05/18 00:20:24;;;;;;;3.70;2.12;;;;;;;8.83;63.34;100294.65;1735869;82;21012;-41
2022/05/18 00:22:53;;;;;;;5.67;2.45;;;;;;;8.79;63.57;100289.54;1735938;82;20921;-41
2022/05/18 00:25:23;;;;;;;4.60;2.20;;;;;;;8.76;63.60;100291.75;1714952;82;21523;-41
2022/05/18 00:27:51;;;;;;;4.37;2.58;;;;;;;8.73;63.78;100299.53;1735902;82;20921;-42
2022/05/18 00:30:21;;;;;;;8.20;2.92;;;;;;;8.69;64.12;100293.97;1736254;82;21432;-41
2022/05/18 00:32:49;;;;;;;3.22;2.22;;;;;;;8.66;64.30;100303.05;1736107;82;20964;-41
2022/05/18 00:35:16;;;;;;;6.35;2.35;;;;;;;8.63;64.39;100307.83;1726116;82;20916;-42
2022/05/18 00:37:42;;;;;;;5.17;2.37;;;;;;;8.61;64.43;100306.55;1706478;84;20964;-42
2022/05/18 00:40:12;;;;;;;2.80;1.90;;;;;;;8.57;64.57;100307.46;1706704;84;20972;-41
2022/05/18 00:42:38;;;;;;;6.62;2.12;;;;;;;8.53;64.33;100303.22;1706516;84;21750;-42
2022/05/18 00:45:07;;;;;;;5.85;2.08;;;;;;;8.52;64.30;100304.09;1686255;84;21015;-41
2022/05/18 00:47:33;;;;;;;3.37;2.05;;;;;;;8.49;64.32;100304.09;1706427;84;21487;-42
2022/05/18 00:50:13;;;;;;;2.75;2.02;;;;;;;8.45;64.17;100302.41;1706589;83;20869;-41
2022/05/18 00:52:48;;;;;;;4.50;2.15;;;;;;;8.40;64.24;100297.74;1706507;83;21395;-41
2022/05/18 00:55:16;;;;;;;7.23;1.57;;;;;;;8.36;64.08;100296.08;1705813;84;21835;-42
2022/05/18 00:57:52;;;;;;;5.22;2.10;;;;;;;8.30;64.14;100300.86;1663523;84;22283;-42
2022/05/18 01:00:20;;;;;;;2.20;1.90;;;;;;;8.24;64.12;100296.65;1706663;83;20960;-42
2022/05/18 01:02:55;;;;;;;4.00;1.77;;;;;;;8.18;64.25;100293.70;1706615;84;20976;-41
2022/05/18 01:05:28;;;;;;;4.03;2.00;;;;;;;8.17;64.16;100296.27;1706741;84;20980;-41
2022/05/18 01:07:56;;;;;;;5.20;2.12;;;;;;;8.13;64.20;100294.61;1706588;84;21846;-41
2022/05/18 01:10:23;;;;;;;5.25;1.80;;;;;;;8.10;63.97;100298.09;1706346;83;21610;-41
2022/05/18 01:12:51;;;;;;;2.05;1.95;;;;;;;8.09;64.02;100298.96;1706816;82;20945;-42
2022/05/18 01:15:19;;;;;;;3.65;2.00;;;;;;;8.08;63.81;100304.12;1706407;84;20936;-41
2022/05/18 01:17:48;;;;;;;8.55;1.95;;;;;;;8.08;63.56;100305.41;1706471;83;20944;-42
2022/05/18 01:20:19;;;;;;;11.15;2.40;;;;;;;8.07;63.57;100299.84;1706410;84;21266;-41
2022/05/18 01:23:06;;;;;;;5.20;2.10;;;;;;;8.06;63.54;100302.83;1706377;84;20921;-41
2022/05/18 01:26:12;;;;;;;6.53;1.90;;;;;;;8.07;63.37;100301.96;1706498;83;20913;-41
2022/05/18 01:28:41;;;;;;;14.68;2.35;;;;;;;8.08;63.20;100302.38;1706813;84;20925;-41
2022/05/18 01:31:07;;;;;;;2.70;1.82;;;;;;;8.07;62.85;100304.99;1706469;84;20972;-41
2022/05/18 01:33:35;;;;;;;4.42;1.60;;;;;;;8.05;62.88;100307.16;1706445;84;21141;-41
2022/05/18 01:36:01;;;;;;;3.70;1.50;;;;;;;8.05;62.55;100308.44;1706254;83;20996;-41
2022/05/18 01:38:29;;;;;;;2.42;1.75;;;;;;;8.04;62.43;100301.58;1706468;84;21011;-41
2022/05/18 01:41:16;;;;;;;3.30;1.75;;;;;;;8.02;62.52;100303.32;1706532;84;21558;-41
2022/05/18 01:43:50;;;;;;;4.55;2.05;;;;;;;7.97;62.63;100308.97;1706561;84;20909;-41
2022/05/18 01:46:18;;;;;;;2.52;1.57;;;;;;;7.91;62.64;100303.84;1706162;83;21299;-41
2022/05/18 01:48:48;;;;;;;5.37;1.50;;;;;;;7.85;62.29;100298.76;1706331;84;20984;-41
2022/05/18 01:51:32;;;;;;;3.55;1.92;;;;;;;7.82;62.22;100298.34;1706474;84;20971;-41
2022/05/18 01:53:58;;;;;;;3.62;1.72;;;;;;;7.76;62.55;100294.54;1704474;83;21519;-41
2022/05/18 01:56:25;;;;;;;2.58;1.70;;;;;;;7.69;62.49;100289.88;1706352;83;20980;-41
2022/05/18 01:58:52;;;;;;;3.35;1.65;;;;;;;7.65;62.37;100288.20;1706622;84;21049;-41
2022/05/18 02:01:20;;;;;;;13.85;1.70;;;;;;;7.59;62.73;100282.69;1706268;83;20971;-41
2022/05/18 02:03:50;;;;;;;16.05;1.60;;;;;;;7.55;62.76;100283.55;1706417;84;20988;-41
2022/05/18 02:06:17;;;;;;;2.58;1.45;;;;;;;7.49;62.81;100279.75;1706440;84;21027;-41
2022/05/18 02:08:46;;;;;;;5.08;1.50;;;;;;;7.46;62.94;100281.94;1706596;84;21043;-41
2022/05/18 02:11:16;;;;;;;6.00;1.52;;;;;;;7.43;63.32;100276.78;1706466;84;22087;-41
2022/05/18 02:13:43;;;;;;;3.70;1.25;;;;;;;7.41;63.44;100280.26;1705646;84;21015;-41
2022/05/18 02:16:10;;;;;;;5.67;1.67;;;;;;;7.35;63.56;100281.16;1686334;84;20941;-41
2022/05/18 02:18:37;;;;;;;5.40;1.57;;;;;;;7.33;63.41;100284.17;1711991;83;20967;-41
2022/05/18 02:21:05;;;;;;;7.08;1.55;;;;;;;7.31;63.25;100284.63;1714551;83;21546;-41
2022/05/18 02:23:32;;;;;;;5.55;1.62;;;;;;;7.30;63.36;100284.20;1714216;83;21494;-41
2022/05/18 02:26:08;;;;;;;2.60;1.57;;;;;;;7.28;63.42;100289.35;1714385;83;20845;-41
2022/05/18 02:28:35;;;;;;;7.15;1.35;;;;;;;7.25;63.45;100289.83;1714318;83;20987;-41
2022/05/18 02:33:07;;;;;;;7.45;1.65;;;;;;;7.23;63.44;100296.71;1798327;79;22442;-40
2022/05/18 02:35:36;;;;;;;2.47;1.52;;;;;;;7.15;63.53;100292.89;1758143;81;20979;-41
2022/05/18 02:38:03;;;;;;;6.53;1.40;;;;;;;7.09;63.63;100300.22;1757954;81;21141;-41
2022/05/18 02:40:30;;;;;;;2.10;1.12;;;;;;;7.06;63.94;100306.67;1695833;83;20912;-41
2022/05/18 02:42:57;;;;;;;1.67;1.30;;;;;;;7.04;63.75;100301.97;1724689;83;20928;-42
2022/05/18 02:45:23;;;;;;;3.37;1.50;;;;;;;7.03;63.68;100306.70;1722334;83;20952;-42
2022/05/18 02:47:51;;;;;;;6.00;1.77;;;;;;;7.03;63.87;100301.55;1716634;82;20943;-41
2022/05/18 02:50:17;;;;;;;5.70;1.37;;;;;;;7.03;63.65;100304.13;1709193;84;21397;-42
2022/05/18 02:52:45;;;;;;;5.28;1.45;;;;;;;7.04;63.68;100310.98;1709018;82;22219;-41
2022/05/18 02:57:57;;;;;;;7.00;1.50;;;;;;;7.13;63.34;100312.20;1709302;84;21610;-41
2022/05/18 03:00:23;;;;;;;5.30;1.70;;;;;;;7.19;63.40;100317.75;1709259;84;20963;-40
2022/05/18 03:02:50;;;;;;;5.95;2.10;;;;;;;7.22;63.48;100315.59;1709210;84;21253;-41
2022/05/18 03:05:17;;;;;;;4.70;1.10;;;;;;;7.27;63.23;100322.85;1709039;84;20904;-40
2022/05/18 03:07:43;;;;;;;2.83;1.10;;;;;;;7.30;63.43;100326.23;1709140;84;21438;-41
2022/05/18 03:10:10;;;;;;;3.90;1.42;;;;;;;7.36;62.05;100329.22;1709077;83;21521;-40
2022/05/18 03:12:37;;;;;;;2.58;1.40;;;;;;;7.42;61.97;100329.61;1680703;84;20916;-40
2022/05/18 03:15:06;;;;;;;7.53;1.87;;;;;;;7.46;61.25;100328.30;1709151;84;21057;-40
2022/05/18 03:17:33;;;;;;;3.60;1.50;;;;;;;7.53;61.15;100328.24;1709143;84;20934;-41
2022/05/18 03:19:59;;;;;;;4.92;1.37;;;;;;;7.59;60.85;100334.63;1709321;84;21520;-41
2022/05/18 03:25:11;;;;;;;5.78;1.82;;;;;;;7.70;60.19;100344.40;1685551;84;21016;-41
2022/05/18 03:27:43;;;;;;;7.62;1.55;;;;;;;7.78;59.71;100340.48;1709193;84;21250;-41
2022/05/18 03:30:12;;;;;;;4.35;1.25;;;;;;;7.88;58.78;100347.70;1709139;84;21494;-41
2022/05/18 03:32:40;;;;;;;1.55;1.07;;;;;;;7.93;58.96;100343.34;1700097;83;21024;-42
2022/05/18 03:35:08;;;;;;;2.08;1.50;;;;;;;7.98;58.89;100348.05;1696872;84;20995;-41
2022/05/18 03:37:35;;;;;;;5.92;1.50;;;;;;;8.00;58.47;100350.17;1696548;84;21005;-41
2022/05/18 03:40:03;;;;;;;3.15;1.60;;;;;;;8.03;58.08;100350.56;1696448;83;21223;-42
2022/05/18 03:42:30;;;;;;;2.85;1.70;;;;;;;8.02;57.92;100351.02;1696323;84;20996;-42
2022/05/18 03:44:57;;;;;;;2.50;1.47;;;;;;;8.03;58.05;100350.14;1695965;84;20917;-41
2022/05/18 03:47:24;;;;;;;9.38;1.17;;;;;;;8.06;58.11;100347.95;1696006;84;21000;-42
2022/05/18 03:49:52;;;;;;;6.30;1.75;;;;;;;8.14;58.21;100360.35;1695983;84;20964;-43
2022/05/18 03:52:19;;;;;;;7.28;1.60;;;;;;;8.21;57.74;100361.16;1695910;84;21054;-42
2022/05/18 03:54:46;;;;;;;9.43;1.22;;;;;;;8.27;57.87;100359.80;1695885;84;20963;-42
2022/05/18 03:57:12;;;;;;;9.10;1.90;;;;;;;8.39;58.37;100354.94;1696088;83;21570;-42
2022/05/18 03:59:40;;;;;;;4.55;1.55;;;;;;;8.55;57.92;100363.81;1696054;84;20917;-42
2022/05/18 04:02:07;;;;;;;3.98;1.42;;;;;;;8.67;56.98;100357.65;1696165;83;20912;-41
2022/05/18 04:04:35;;;;;;;3.27;1.60;;;;;;;8.74;56.73;100356.27;1696005;84;22192;-42
2022/05/18 04:07:02;;;;;;;2.22;1.90;;;;;;;8.82;56.95;100363.05;1695988;84;20964;-42
2022/05/18 04:09:29;;;;;;;9.53;2.70;;;;;;;8.89;57.08;100362.97;1695969;84;20946;-42
2022/05/18 04:11:57;;;;;;;4.70;1.50;;;;;;;9.03;56.95;100369.23;1695989;84;21072;-42
2022/05/18 04:14:24;;;;;;;8.53;1.72;;;;;;;9.11;56.04;100369.59;1696030;84;20909;-42
2022/05/18 04:16:50;;;;;;;3.50;1.60;;;;;;;9.19;55.44;100369.88;1696049;84;21201;-42
2022/05/18 04:19:19;;;;;;;2.47;1.27;;;;;;;9.31;55.29;100366.27;1696035;84;21015;-41
2022/05/18 04:21:46;;;;;;;8.40;1.50;;;;;;;9.44;54.96;100364.35;1696051;83;21095;-42
2022/05/18 04:24:13;;;;;;;3.45;1.27;;;;;;;9.53;55.10;100372.86;1696049;84;20937;-42
2022/05/18 04:26:40;;;;;;;4.03;1.20;;;;;;;9.63;54.57;100371.41;1695944;84;20980;-42
2022/05/18 04:29:06;;;;;;;3.15;1.05;;;;;;;9.77;54.52;100373.77;1696239;84;21476;-42
2022/05/18 04:31:33;;;;;;;5.62;1.32;;;;;;;9.93;53.69;100377.37;1696438;83;20925;-42
2022/05/18 04:34:00;;;;;;;7.62;1.62;;;;;;;9.94;53.58;100385.53;1711126;83;20951;-42
2022/05/18 04:36:26;;;;;;;7.25;3.30;;;;;;;9.96;52.40;100381.19;1701524;84;20932;-41
2022/05/18 04:38:53;;;;;;;8.28;3.37;;;;;;;9.99;53.41;100370.82;1711091;83;20904;-43
2022/05/18 04:41:20;;;;;;;3.58;2.15;;;;;;;10.13;53.15;100371.87;1701795;84;21075;-42
2022/05/18 04:43:48;;;;;;;4.55;1.10;;;;;;;10.19;52.71;100379.94;1711268;83;20940;-42
2022/05/18 04:46:14;;;;;;;14.03;1.50;;;;;;;10.24;52.58;100387.20;1701339;84;21000;-42
2022/05/18 04:48:42;;;;;;;3.33;1.20;;;;;;;10.30;52.72;100380.61;1711061;82;20912;-43
2022/05/18 04:51:09;;;;;;;2.95;1.00;;;;;;;10.49;52.80;100383.73;1701491;84;21605;-43
2022/05/18 04:53:36;;;;;;;3.30;1.30;;;;;;;10.62;51.41;100385.64;1711272;83;21461;-42
2022/05/18 04:56:05;;;;;;;3.37;0.93;;;;;;;10.70;51.37;100385.92;1701439;84;20956;-42
2022/05/18 04:58:33;;;;;;;5.35;1.30;;;;;;;10.85;51.68;100388.20;1711262;83;21493;-43
2022/05/18 05:01:06;;;;;;;2.65;1.25;;;;;;;10.97;51.50;100387.10;1701416;84;21536;-42
2022/05/18 05:03:32;;;;;;;6.00;0.90;;;;;;;11.10;50.62;100392.87;1710992;83;21354;-40
2022/05/18 05:06:00;;;;;;;3.12;1.00;;;;;;;11.11;50.36;100381.62;1701447;84;21082;-40
2022/05/18 05:08:29;;;;;;;4.10;1.05;;;;;;;11.16;51.00;100384.12;1685680;85;21514;-41
2022/05/18 05:10:57;;;;;;;6.37;1.10;;;;;;;11.26;51.05;100383.48;1711063;83;21553;-41
2022/05/18 05:13:24;;;;;;;4.58;1.20;;;;;;;11.25;51.19;100385.66;1682538;85;20924;-42
2022/05/18 05:15:54;;;;;;;3.02;1.12;;;;;;;11.38;50.30;100394.02;1701501;84;20913;-42
2022/05/18 05:18:19;;;;;;;2.27;1.02;;;;;;;11.52;49.99;100394.98;1685464;85;21167;-41
2022/05/18 05:20:46;;;;;;;2.52;0.95;;;;;;;11.54;49.77;100390.62;1710981;83;20852;-41
2022/05/18 05:23:13;;;;;;;4.70;0.70;;;;;;;11.48;49.58;100396.33;1682337;84;21004;-41
2022/05/18 05:25:39;;;;;;;1.62;0.80;;;;;;;11.50;49.97;100394.58;1711074;83;21020;-41
2022/05/18 05:28:09;;;;;;;2.87;1.17;;;;;;;11.63;49.44;100392.55;1701509;84;21455;-41
2022/05/18 05:30:37;;;;;;;6.17;0.98;;;;;;;11.75;49.15;100392.70;1710995;83;21091;-41
2022/05/18 05:33:03;;;;;;;5.95;1.22;;;;;;;11.93;49.83;100400.89;1698082;83;20929;-41
2022/05/18 05:35:31;;;;;;;2.37;0.80;;;;;;;12.06;50.59;100391.96;1695985;84;20949;-42
2022/05/18 05:37:58;;;;;;;9.58;1.00;;;;;;;12.37;49.35;100396.77;1696054;84;21517;-42
2022/05/18 05:40:24;;;;;;;2.60;1.00;;;;;;;12.54;48.29;100404.56;1695996;83;21016;-42
2022/05/18 05:42:51;;;;;;;8.38;1.20;;;;;;;12.47;48.54;100409.06;1695867;83;21166;-42
2022/05/18 05:45:18;;;;;;;4.65;1.15;;;;;;;12.49;49.33;100402.08;1695808;84;20953;-41
2022/05/18 05:47:44;;;;;;;4.17;0.90;;;;;;;12.59;50.03;100407.44;1666180;84;20968;-41
2022/05/18 05:50:13;;;;;;;4.05;1.10;;;;;;;12.68;48.39;100415.43;1695916;84;21495;-41
2022/05/18 05:52:40;;;;;;;2.33;0.85;;;;;;;12.70;48.02;100412.34;1695947;84;20999;-42
2022/05/18 05:55:08;;;;;;;5.58;0.88;;;;;;;12.82;48.53;100413.74;1695967;83;21479;-42
2022/05/18 05:57:36;;;;;;;3.83;0.90;;;;;;;13.03;47.96;100407.06;1666669;84;20992;-42
2022/05/18 06:00:04;;;;;;;1.90;0.90;;;;;;;13.23;49.29;100416.02;1666223;84;20956;-42
2022/05/18 06:02:33;;;;;;;3.90;0.93;;;;;;;13.37;47.51;100413.83;1694770;84;20953;-42
2022/05/18 06:04:59;;;;;;;1.37;0.80;;;;;;;13.19;46.79;100420.45;1695879;84;21668;-42
2022/05/18 06:07:27;;;;;;;6.87;0.90;;;;;;;13.06;47.30;100420.42;1695921;84;21110;-41
2022/05/18 06:09:53;;;;;;;3.85;0.90;;;;;;;13.06;46.94;100419.13;1695751;84;20929;-42
2022/05/18 06:12:20;;;;;;;5.45;1.42;;;;;;;13.17;46.52;100424.84;1695974;84;20991;-42
2022/05/18 06:14:48;;;;;;;1.15;0.70;;;;;;;13.35;46.37;100424.73;1695844;84;21020;-42
2022/05/18 06:17:15;;;;;;;3.27;0.80;;;;;;;13.53;45.56;100423.80;1695850;83;21027;-41
2022/05/18 06:19:42;;;;;;;1.50;0.80;;;;;;;13.64;45.24;100433.44;1695782;83;21950;-42
2022/05/18 06:22:10;;;;;;;3.25;0.72;;;;;;;13.62;43.89;100430.00;1695785;84;21047;-42
2022/05/18 06:24:37;;;;;;;6.33;1.27;;;;;;;13.63;43.30;100439.97;1695798;84;20921;-42
2022/05/18 06:27:05;;;;;;;2.35;0.82;;;;;;;13.63;43.70;100430.87;1695916;83;21467;-41
2022/05/18 06:29:32;;;;;;;8.08;0.85;;;;;;;13.76;43.67;100425.66;1666076;84;21518;-42
2022/05/18 06:31:58;;;;;;;2.10;1.00;;;;;;;13.89;43.06;100420.08;1695599;84;21050;-42
2022/05/18 06:34:25;;;;;;;4.00;0.98;;;;;;;14.08;43.51;100425.08;1695715;83;20948;-42
2022/05/18 06:36:51;;;;;;;2.55;0.88;;;;;;;14.39;43.06;100418.41;1695903;84;20996;-42
2022/05/18 06:39:19;;;;;;;7.85;0.93;;;;;;;14.70;43.35;100425.12;1695901;84;20955;-42
2022/05/18 06:41:47;;;;;;;3.27;1.50;;;;;;;14.93;42.58;100419.95;1695894;83;21047;-41
2022/05/18 06:44:14;;;;;;;5.28;1.22;;;;;;;15.02;40.72;100424.42;1695848;84;21422;-42
2022/05/18 06:46:41;;;;;;;2.67;1.02;;;;;;;15.06;39.70;100425.56;1695796;83;21004;-42
2022/05/18 06:49:10;;;;;;;1.70;1.05;;;;;;;14.99;39.72;100421.94;1696131;84;20980;-42
2022/05/18 06:51:39;;;;;;;4.50;0.80;;;;;;;14.93;42.92;100429.08;1695746;84;20921;-42
2022/05/18 06:54:07;;;;;;;4.58;1.10;;;;;;;15.04;41.31;100423.94;1695815;84;20912;-41
2022/05/18 06:56:38;;;;;;;2.33;1.10;;;;;;;15.04;42.28;100434.37;1695827;83;21038;-42
2022/05/18 06:59:05;;;;;;;2.50;1.12;;;;;;;15.07;41.44;100426.42;1665888;84;20916;-42
2022/05/18 07:01:32;;;;;;;1.45;1.10;;;;;;;15.14;41.49;100438.31;1695820;84;21011;-42
2022/05/18 07:03:59;;;;;;;3.05;0.95;;;;;;;14.85;38.33;100445.46;1695726;83;21011;-42
2022/05/18 07:06:35;;;;;;;3.42;0.90;;;;;;;14.59;40.22;100429.42;1695926;84;21339;-42
2022/05/18 07:09:13;;;;;;;1.20;0.93;;;;;;;14.46;39.63;100422.49;1667371;84;21256;-42
2022/05/18 07:11:42;;;;;;;4.75;0.90;;;;;;;14.23;40.77;100441.06;1695140;84;21553;-42
2022/05/18 07:14:09;;;;;;;3.10;0.93;;;;;;;14.00;38.36;100431.43;1695815;84;21043;-41
2022/05/18 07:16:35;;;;;;;3.15;0.80;;;;;;;13.82;40.48;100433.73;1695916;84;20965;-42
2022/05/18 07:19:02;;;;;;;3.00;1.10;;;;;;;13.87;43.66;100442.22;1695950;83;20976;-42
2022/05/18 07:21:29;;;;;;;3.62;1.00;;;;;;;13.97;40.40;100431.53;1695976;84;21137;-42
2022/05/18 07:23:56;;;;;;;5.87;1.07;;;;;;;13.83;40.54;100438.50;1696061;84;21551;-42
2022/05/18 07:26:23;;;;;;;4.92;0.93;;;;;;;13.79;42.10;100445.53;1696045;84;21003;-42
2022/05/18 07:28:51;;;;;;;2.30;0.78;;;;;;;14.05;41.32;100435.59;1695797;84;20999;-42
2022/05/18 07:31:19;;;;;;;7.62;0.78;;;;;;;14.47;42.77;100447.63;1695962;83;21387;-42
2022/05/18 07:33:47;;;;;;;4.33;1.17;;;;;;;14.62;40.17;100445.80;1699248;83;20877;-42
2022/05/18 07:36:16;;;;;;;1.62;0.90;;;;;;;14.72;40.30;100445.05;1711165;83;20952;-42
2022/05/18 07:38:44;;;;;;;5.70;0.95;;;;;;;14.73;40.98;100450.66;1682517;85;20936;-42
2022/05/18 07:41:14;;;;;;;7.47;1.00;;;;;;;14.51;40.29;100448.78;1701391;84;21062;-42
2022/05/18 07:43:41;;;;;;;8.00;1.20;;;;;;;14.37;40.47;100445.80;1684278;85;21040;-42
2022/05/18 07:46:09;;;;;;;4.83;1.00;;;;;;;14.68;41.08;100443.87;1711099;83;21169;-42
2022/05/18 07:48:36;;;;;;;2.65;1.15;;;;;;;14.96;41.28;100447.67;1701347;84;21060;-42
2022/05/18 07:51:03;;;;;;;2.87;0.95;;;;;;;15.05;40.50;100451.23;1711173;83;20904;-42
2022/05/18 07:53:30;;;;;;;8.08;2.00;;;;;;;15.16;40.89;100452.61;1701378;84;20956;-42
2022/05/18 07:55:57;;;;;;;2.47;0.75;;;;;;;15.41;37.35;100443.38;1711012;83;21534;-42
2022/05/18 07:58:23;;;;;;;1.62;0.60;;;;;;;15.69;37.40;100443.59;1701442;84;22121;-42
2022/05/18 08:00:50;;;;;;;6.97;1.10;;;;;;;15.66;38.18;100449.80;1711180;83;21482;-42
2022/05/18 08:03:18;;;;;;;6.05;0.95;;;;;;;15.52;38.16;100449.48;1682672;85;21506;-42
2022/05/18 08:18:57;;;;;;;11.78;0.70;;;;;;;15.48;40.06;100450.05;1711082;83;20948;-42
2022/05/18 08:25:07;;;;;;;1.35;0.60;;;;;;;13.92;43.00;100455.09;1711233;83;21433;-42
2022/05/18 08:27:55;;;;;;;3.90;1.15;;;;;;;13.59;43.33;100457.87;1701652;84;21472;-42
2022/05/18 08:30:22;;;;;;;5.00;0.72;;;;;;;13.36;44.50;100463.30;1711081;83;20956;-42
2022/05/18 08:32:50;;;;;;;1.07;0.65;;;;;;;13.32;44.93;100461.69;1701411;83;20960;-42
2022/05/18 08:35:18;;;;;;;1.47;0.80;;;;;;;13.34;45.33;100461.19;1711074;83;20912;-42
2022/05/18 08:37:47;;;;;;;1.42;0.80;;;;;;;13.40;43.75;100454.50;1701320;84;20952;-42
2022/05/18 08:40:39;;;;;;;3.22;0.88;;;;;;;13.59;45.05;100460.48;1711043;83;21263;-42
2022/05/18 08:43:12;;;;;;;5.70;0.75;;;;;;;13.98;43.68;100444.48;1691840;84;20972;-42
2022/05/18 08:45:46;;;;;;;3.15;1.00;;;;;;;14.47;41.87;100435.91;1710940;82;21011;-42
2022/05/18 08:48:42;;;;;;;3.45;1.00;;;;;;;14.47;39.87;100444.59;1685140;83;20979;-42
2022/05/18 08:51:39;;;;;;;1.80;0.90;;;;;;;14.29;39.23;100448.69;1711332;83;20916;-42
2022/05/18 08:57:39;;;;;;;1.77;0.88;;;;;;;13.99;39.86;100448.78;1659002;85;20941;-42
2022/05/18 09:00:15;;;;;;;3.50;0.80;;;;;;;13.94;40.13;100438.98;1711042;83;20928;-43
2022/05/18 09:02:42;;;;;;;10.25;1.02;;;;;;;13.88;39.94;100434.81;1701417;84;21028;-42
2022/05/18 09:05:44;;;;;;;2.55;0.60;;;;;;;13.81;39.84;100441.13;1711171;83;21070;-41
2022/05/18 09:08:20;;;;;;;2.27;0.60;;;;;;;13.81;40.22;100442.43;1701389;84;21244;-42
2022/05/18 09:11:03;;;;;;;5.65;0.80;;;;;;;13.75;40.09;100443.47;1711196;83;21431;-41
2022/05/18 09:13:31;;;;;;;1.40;1.02;;;;;;;13.75;40.29;100438.27;1701334;84;21525;-42
2022/05/18 09:16:16;;;;;;;1.62;0.72;;;;;;;13.83;42.39;100433.29;1711067;83;20992;-42
2022/05/18 09:19:21;;;;;;;4.50;1.10;;;;;;;14.14;39.26;100423.99;1701320;84;21028;-42
2022/05/18 09:22:11;;;;;;;4.40;0.90;;;;;;;14.60;41.32;100429.81;1711234;83;21169;-43
2022/05/18 09:25:06;;;;;;;1.25;0.75;;;;;;;15.28;36.63;100427.36;1682103;85;21007;-43
2022/05/18 09:28:01;;;;;;;4.83;0.78;;;;;;;15.42;36.51;100421.60;1701638;84;20968;-43
2022/05/18 09:30:54;;;;;;;4.28;0.72;;;;;;;15.89;36.91;100432.84;1711138;83;20959;-42
2022/05/18 09:33:47;;;;;;;3.20;0.70;;;;;;;16.48;35.48;100421.22;1703874;83;21001;-44
2022/05/18 09:36:34;;;;;;;9.98;0.88;;;;;;;17.18;34.52;100433.37;1721500;83;21793;-43
2022/05/18 09:39:05;;;;;;;3.77;1.55;;;;;;;17.20;32.15;100422.38;1721514;83;20939;-43
2022/05/18 09:41:47;;;;;;;4.28;0.65;;;;;;;17.16;31.15;100431.73;1690162;84;21006;-43
2022/05/18 09:44:20;;;;;;;2.60;1.12;;;;;;;17.00;29.95;100422.00;1721753;83;21426;-42
2022/05/18 09:46:47;;;;;;;2.85;0.70;;;;;;;16.67;32.25;100430.39;1692649;84;21529;-43
2022/05/18 09:49:29;;;;;;;3.87;0.70;;;;;;;16.19;32.86;100427.24;1721514;83;22147;-44
2022/05/18 09:51:56;;;;;;;4.75;1.00;;;;;;;15.97;33.71;100422.92;1692565;84;21567;-43
2022/05/18 09:54:23;;;;;;;1.70;0.78;;;;;;;15.88;33.98;100429.80;1694810;83;20959;-43
2022/05/18 09:56:55;;;;;;;1.32;0.80;;;;;;;15.80;35.12;100425.75;1692645;84;21045;-44
2022/05/18 09:59:28;;;;;;;2.92;0.93;;;;;;;16.15;34.94;100430.42;1692720;84;21544;-44
2022/05/18 10:07:34;;;;;;;1.45;0.78;;;;;;;15.80;35.82;100432.72;1692935;83;21509;-43
2022/05/18 10:10:21;;;;;;;4.12;0.90;;;;;;;15.78;34.70;100423.63;1721577;82;20990;-44
2022/05/18 10:13:03;;;;;;;0.60;0.60;;;;;;;15.87;32.83;100436.77;1721652;83;21556;-44
2022/05/18 10:15:41;;;;;;;9.88;1.75;;;;;;;15.99;34.08;100426.31;1692574;84;21222;-43
2022/05/18 10:18:27;;;;;;;6.53;1.00;;;;;;;16.16;34.54;100432.59;1721390;83;20856;-44
2022/05/18 10:21:14;;;;;;;5.62;0.80;;;;;;;16.56;33.22;100425.67;1692399;84;21018;-43
2022/05/18 10:23:46;;;;;;;5.72;0.82;;;;;;;16.88;32.19;100431.22;1692535;84;21512;-44
2022/05/18 10:26:27;;;;;;;0.60;0.60;;;;;;;16.98;32.84;100436.91;1692797;84;20943;-43
2022/05/18 10:29:07;;;;;;;2.15;0.75;;;;;;;16.79;31.45;100435.09;1692572;84;21213;-44
2022/05/18 10:31:38;;;;;;;3.50;1.07;;;;;;;16.40;31.91;100423.33;1681001;84;20943;-44
2022/05/18 10:34:28;;;;;;;1.98;0.60;;;;;;;16.45;32.25;100426.58;1685759;84;21008;-43
2022/05/18 10:36:57;;;;;;;1.55;0.62;;;;;;;16.77;30.62;100433.00;1735673;81;20988;-42
2022/05/18 10:39:41;;;;;;;1.10;0.70;;;;;;;16.72;29.76;100427.59;1735754;81;21032;-42
2022/05/18 10:42:23;;;;;;;6.28;0.72;;;;;;;16.59;30.94;100424.67;1735794;82;21072;-43
2022/05/18 10:44:52;;;;;;;4.92;0.80;;;;;;;16.47;31.34;100424.30;1735023;82;20991;-43
2022/05/18 10:47:33;;;;;;;1.35;0.70;;;;;;;16.75;33.32;100425.70;1700735;84;20892;-43
2022/05/18 10:50:25;;;;;;;5.00;1.12;;;;;;;16.98;33.62;100421.63;1700486;84;20996;-43
2022/05/18 10:53:03;;;;;;;3.52;0.85;;;;;;;17.19;32.64;100441.60;1700789;84;21503;-43
2022/05/18 10:55:30;;;;;;;3.10;0.62;;;;;;;17.29;32.43;100428.08;1669790;84;21807;-42
2022/05/18 10:58:05;;;;;;;0.88;0.88;;;;;;;17.70;30.87;100433.59;1695953;83;21017;-42
2022/05/18 11:00:48;;;;;;;0.62;0.57;;;;;;;17.66;29.55;100428.95;1695956;83;20976;-42
2022/05/18 11:03:26;;;;;;;2.30;1.40;;;;;;;17.85;29.75;100425.45;1696062;84;21503;-43
2022/05/18 11:05:58;;;;;;;0.72;0.72;;;;;;;17.99;29.24;100427.37;1696137;84;21547;-43
2022/05/18 11:08:30;;;;;;;0.65;0.60;;;;;;;18.13;28.11;100422.30;1696139;84;21151;-43
2022/05/18 11:11:20;;;;;;;2.83;0.80;;;;;;;18.05;28.76;100428.40;1695746;83;20972;-42
2022/05/18 11:14:05;;;;;;;5.25;1.32;;;;;;;17.89;29.88;100435.67;1666054;84;21003;-42
2022/05/18 11:17:02;;;;;;;5.65;0.60;;;;;;;17.61;29.29;100442.73;1694645;84;21015;-43
2022/05/18 11:19:35;;;;;;;1.17;0.70;;;;;;;17.17;29.88;100442.13;1695946;83;20964;-43
2022/05/18 11:22:28;;;;;;;1.85;0.62;;;;;;;16.77;31.50;100455.66;1695948;83;21068;-43
2022/05/18 11:25:42;;;;;;;3.95;0.78;;;;;;;16.46;32.56;100449.17;1695853;83;21003;-43
2022/05/18 11:28:35;;;;;;;5.58;0.60;;;;;;;15.97;33.89;100463.38;1696126;84;21448;-43
2022/05/18 11:31:31;;;;;;;1.05;0.50;;;;;;;15.68;34.57;100460.16;1696003;84;21027;-42
2022/05/18 11:34:19;;;;;;;7.87;0.85;;;;;;;15.51;35.69;100456.91;1664207;83;21015;-43
2022/05/18 11:37:35;;;;;;;4.17;0.80;;;;;;;15.54;36.46;100459.40;1695866;84;22892;-42
2022/05/18 11:40:27;;;;;;;2.67;0.63;;;;;;;15.63;36.33;100459.50;1695031;84;21554;-43
2022/05/18 11:43:33;;;;;;;6.28;0.98;;;;;;;15.75;35.13;100464.20;1695940;84;20933;-43
2022/05/18 11:46:57;;;;;;;9.53;0.80;;;;;;;15.73;35.75;100453.46;1696027;83;21425;-43
2022/05/18 11:49:28;;;;;;;1.87;0.88;;;;;;;15.81;36.64;100477.48;1696058;84;21047;-43
2022/05/18 11:52:30;;;;;;;2.58;1.20;;;;;;;16.18;35.82;100466.02;1695517;84;21237;-43
2022/05/18 11:55:23;;;;;;;0.50;0.50;;;;;;;16.73;36.26;100469.34;1695496;84;20968;-43
2022/05/18 11:58:26;;;;;;;17.30;0.95;;;;;;;16.60;36.51;100479.92;1695891;84;20905;-42
2022/05/18 12:01:11;;;;;;;1.35;0.72;;;;;;;16.24;36.59;100484.03;1695939;84;20924;-42
2022/05/18 12:04:17;;;;;;;4.53;0.70;;;;;;;16.00;37.05;100478.08;1696202;84;21463;-43
2022/05/18 12:07:15;;;;;;;4.17;0.80;;;;;;;15.92;36.41;100478.38;1694950;84;21903;-43
2022/05/18 12:10:07;;;;;;;1.55;0.60;;;;;;;15.55;36.85;100492.87;1695658;84;21558;-43
2022/05/18 12:12:46;;;;;;;4.37;0.80;;;;;;;15.17;36.31;100487.73;1696054;83;20956;-43
2022/05/18 12:15:42;;;;;;;1.17;0.60;;;;;;;15.05;37.21;100481.68;1695969;84;20972;-43
2022/05/18 12:18:29;;;;;;;3.70;0.78;;;;;;;14.97;32.80;100478.48;1696146;84;20995;-43
2022/05/18 12:21:07;;;;;;;2.87;0.75;;;;;;;14.81;33.24;100476.45;1695042;84;22126;-42
2022/05/18 12:23:39;;;;;;;2.72;0.88;;;;;;;14.96;33.97;100485.91;1695711;84;20944;-43
2022/05/18 12:26:07;;;;;;;1.70;0.55;;;;;;;15.35;33.25;100489.26;1695901;83;20928;-43
2022/05/18 12:28:34;;;;;;;1.32;0.70;;;;;;;15.71;32.93;100493.12;1695964;84;21004;-43